Time;durP1;ratioP1;P1;durP2;ratioP2;P2;SDS_P1;SDS_P2;PMS_P1;PMS_P2;Temp;Humidity;BMP_temperature;BMP_pressure;BME280_temperature;BME280_humidity;BME280_pressure;Samples;Min_cycle;Max_cycle;Signal;HPM_P1;HPM_P2
2023/12/23 00:01:47;;;;;;;10.80;4.23;;;2.80;99.90;;;;;;4191811;28;20350;-61
2023/12/23 00:03:48;;;;;;;10.83;4.13;;;2.80;99.90;;;;;;4190656;28;20285;-62
2023/12/23 00:05:49;;;;;;;17.63;4.97;;;2.80;99.90;;;;;;4190797;28;20269;-60
2023/12/23 00:07:50;;;;;;;7.90;3.00;;;2.80;99.90;;;;;;4192004;28;20363;-60
2023/12/23 00:09:51;;;;;;;13.13;4.00;;;2.80;99.90;;;;;;4192215;28;20285;-60
2023/12/23 00:11:53;;;;;;;7.23;3.13;;;2.80;99.90;;;;;;4192339;28;20275;-61
2023/12/23 00:13:54;;;;;;;9.33;3.27;;;2.90;99.90;;;;;;4190783;28;20300;-60
2023/12/23 00:15:55;;;;;;;7.37;3.47;;;2.90;99.90;;;;;;4191884;28;20265;-61
2023/12/23 00:17:56;;;;;;;9.13;2.93;;;2.90;99.90;;;;;;4191090;28;20621;-60
2023/12/23 00:19:57;;;;;;;6.70;2.37;;;2.90;99.90;;;;;;4190922;28;20311;-60
2023/12/23 00:21:59;;;;;;;5.90;1.97;;;2.90;99.90;;;;;;4191166;28;20331;-60
2023/12/23 00:24:00;;;;;;;3.20;2.07;;;2.90;99.90;;;;;;4191848;28;20274;-60
2023/12/23 00:26:01;;;;;;;4.33;1.87;;;2.90;99.90;;;;;;4190997;28;20273;-62
2023/12/23 00:28:03;;;;;;;2.33;1.60;;;2.90;99.90;;;;;;4191767;28;20273;-61
2023/12/23 00:30:05;;;;;;;3.80;1.20;;;2.90;99.90;;;;;;4191187;28;20341;-61
2023/12/23 00:32:07;;;;;;;2.37;0.67;;;2.90;99.90;;;;;;4194995;28;20262;-61
2023/12/23 00:34:08;;;;;;;4.63;0.80;;;2.90;99.90;;;;;;4193481;28;20331;-61
2023/12/23 00:36:09;;;;;;;2.50;1.07;;;2.90;99.90;;;;;;4194272;28;20282;-61
2023/12/23 00:38:10;;;;;;;3.00;1.00;;;2.90;99.90;;;;;;4194780;28;20646;-61
2023/12/23 00:40:12;;;;;;;3.53;1.23;;;2.90;99.90;;;;;;4175879;28;20314;-61
2023/12/23 00:42:13;;;;;;;2.87;1.10;;;2.90;99.90;;;;;;4193594;28;20254;-61
2023/12/23 00:44:14;;;;;;;3.23;0.93;;;2.90;99.90;;;;;;4193509;28;20672;-61
2023/12/23 00:46:16;;;;;;;3.00;1.00;;;2.90;99.90;;;;;;4193426;28;20346;-61
2023/12/23 00:48:17;;;;;;;2.80;1.13;;;2.90;99.90;;;;;;4192714;28;20277;-61
2023/12/23 00:50:19;;;;;;;4.00;1.50;;;2.90;99.90;;;;;;4194052;28;20262;-61
2023/12/23 00:52:20;;;;;;;2.87;1.03;;;2.80;99.90;;;;;;4193860;28;20676;-61
2023/12/23 00:54:23;;;;;;;4.93;1.60;;;2.80;99.90;;;;;;4194016;28;20273;-61
2023/12/23 00:56:24;;;;;;;4.93;1.83;;;2.80;99.90;;;;;;4194263;28;20600;-61
2023/12/23 00:58:25;;;;;;;2.10;1.00;;;2.80;99.90;;;;;;4193072;28;20269;-61
2023/12/23 01:00:26;;;;;;;2.43;0.97;;;2.80;99.90;;;;;;4193549;28;20289;-61
2023/12/23 01:02:27;;;;;;;1.33;0.90;;;2.90;99.90;;;;;;4193942;28;20281;-60
2023/12/23 01:04:29;;;;;;;2.60;1.60;;;2.90;99.90;;;;;;4194227;28;20281;-60
2023/12/23 01:06:30;;;;;;;1.40;0.90;;;2.90;99.90;;;;;;4194225;28;20269;-60
2023/12/23 01:08:31;;;;;;;4.10;1.37;;;2.90;99.90;;;;;;4194625;28;20832;-60
2023/12/23 01:10:32;;;;;;;1.80;0.97;;;2.90;99.90;;;;;;4193273;28;20269;-60
2023/12/23 01:12:34;;;;;;;3.77;1.13;;;2.90;99.90;;;;;;4194281;28;20261;-62
2023/12/23 01:14:35;;;;;;;2.10;1.23;;;3.00;99.90;;;;;;4194172;28;20257;-61
2023/12/23 01:16:36;;;;;;;3.13;1.07;;;3.00;99.90;;;;;;4194546;28;20311;-60
2023/12/23 01:18:37;;;;;;;0.90;0.60;;;3.00;99.90;;;;;;4193631;28;20315;-61
2023/12/23 01:20:39;;;;;;;2.33;0.50;;;3.00;99.90;;;;;;4194122;28;20695;-60
2023/12/23 01:22:41;;;;;;;3.03;0.90;;;3.00;99.90;;;;;;4192993;28;20708;-60
2023/12/23 01:24:42;;;;;;;0.47;0.33;;;3.10;99.90;;;;;;4193021;28;20342;-60
2023/12/23 01:26:44;;;;;;;2.20;0.50;;;3.10;99.90;;;;;;4194002;28;20314;-61
2023/12/23 01:28:45;;;;;;;2.40;0.30;;;3.10;99.90;;;;;;4193346;28;20269;-61
2023/12/23 01:30:46;;;;;;;1.13;0.37;;;3.10;99.90;;;;;;4193020;28;20326;-61
2023/12/23 01:32:47;;;;;;;2.60;0.50;;;3.20;99.90;;;;;;4193140;28;20281;-60
2023/12/23 01:34:48;;;;;;;1.53;0.40;;;3.20;99.90;;;;;;4192794;28;20273;-60
2023/12/23 01:36:49;;;;;;;1.13;0.50;;;3.20;99.90;;;;;;4175210;28;20320;-61
2023/12/23 01:38:51;;;;;;;3.00;0.57;;;3.20;99.90;;;;;;4193788;28;20342;-60
2023/12/23 01:40:53;;;;;;;1.30;0.60;;;3.20;99.90;;;;;;4193721;28;20265;-60
2023/12/23 01:42:54;;;;;;;0.73;0.37;;;3.10;99.90;;;;;;4193152;28;20322;-61
2023/12/23 01:44:55;;;;;;;1.07;0.40;;;3.10;99.90;;;;;;4192922;28;20438;-61
2023/12/23 01:46:58;;;;;;;0.90;0.50;;;3.10;99.90;;;;;;4191424;28;20289;-61
2023/12/23 01:49:00;;;;;;;1.93;0.40;;;3.10;99.90;;;;;;4191751;28;20331;-61
2023/12/23 01:51:02;;;;;;;3.63;0.90;;;3.10;99.90;;;;;;4193032;28;20327;-62
2023/12/23 01:53:04;;;;;;;0.70;0.40;;;3.00;99.90;;;;;;4192586;28;20282;-61
2023/12/23 01:55:06;;;;;;;2.73;0.83;;;3.00;99.90;;;;;;4193393;28;20814;-61
2023/12/23 01:57:07;;;;;;;1.93;0.77;;;3.00;99.90;;;;;;4192538;28;20293;-61
2023/12/23 01:59:08;;;;;;;1.53;0.80;;;3.00;99.90;;;;;;4191462;28;20354;-61
2023/12/23 02:01:09;;;;;;;2.83;0.60;;;3.00;99.90;;;;;;4192231;28;20277;-61
2023/12/23 02:03:10;;;;;;;2.93;0.40;;;3.00;99.90;;;;;;4193202;28;20277;-60
2023/12/23 02:05:12;;;;;;;1.97;0.53;;;3.00;99.90;;;;;;4192948;28;20355;-61
2023/12/23 02:07:13;;;;;;;2.13;0.70;;;3.00;99.90;;;;;;4192412;28;20331;-61
2023/12/23 02:09:14;;;;;;;1.40;0.50;;;3.00;99.90;;;;;;4193710;28;20753;-61
2023/12/23 02:11:23;;;;;;;1.60;0.90;;;3.00;99.90;;;;;;4193125;28;20279;-62
2023/12/23 02:13:27;;;;;;;1.30;0.57;;;3.00;99.90;;;;;;4192954;28;20314;-61
2023/12/23 02:15:30;;;;;;;1.47;0.80;;;3.00;99.90;;;;;;4191506;28;20719;-61
2023/12/23 02:17:31;;;;;;;0.43;0.40;;;3.00;99.90;;;;;;4193225;28;20315;-61
2023/12/23 02:19:32;;;;;;;1.60;0.60;;;3.00;99.90;;;;;;4192940;28;20289;-61
2023/12/23 02:21:33;;;;;;;2.50;0.40;;;3.00;99.90;;;;;;4192900;28;20910;-61
2023/12/23 02:23:35;;;;;;;3.30;0.63;;;3.00;99.90;;;;;;4192908;28;20331;-61
2023/12/23 02:25:36;;;;;;;1.00;0.60;;;3.00;99.90;;;;;;4192966;28;20641;-61
2023/12/23 02:27:43;;;;;;;1.37;0.50;;;2.90;99.90;;;;;;4192914;28;20395;-61
2023/12/23 02:29:46;;;;;;;1.13;0.43;;;2.90;99.90;;;;;;4191975;28;20335;-61
2023/12/23 02:31:49;;;;;;;1.93;0.73;;;3.00;99.90;;;;;;4193031;28;20277;-60
2023/12/23 02:33:50;;;;;;;1.50;0.60;;;2.90;99.90;;;;;;4193068;28;20266;-61
2023/12/23 02:35:52;;;;;;;2.40;0.97;;;2.90;99.90;;;;;;4192670;28;20307;-59
2023/12/23 02:37:54;;;;;;;1.83;0.70;;;2.90;99.90;;;;;;4191552;28;20701;-61
2023/12/23 02:39:56;;;;;;;0.90;0.60;;;2.90;99.90;;;;;;4191740;28;20301;-61
2023/12/23 02:41:57;;;;;;;0.70;0.40;;;3.00;99.90;;;;;;4191954;28;20273;-61
2023/12/23 02:43:59;;;;;;;1.07;0.60;;;3.00;99.90;;;;;;4191218;28;20281;-60
2023/12/23 02:46:00;;;;;;;0.70;0.37;;;2.90;99.90;;;;;;4191609;28;20335;-61
2023/12/23 02:48:02;;;;;;;1.83;0.40;;;2.90;99.90;;;;;;4192696;28;20315;-62
2023/12/23 02:50:03;;;;;;;1.50;0.87;;;3.00;99.90;;;;;;4192095;28;20258;-61
2023/12/23 02:52:04;;;;;;;0.77;0.50;;;3.00;99.90;;;;;;4192793;28;20753;-61
2023/12/23 02:54:06;;;;;;;0.60;0.30;;;2.90;99.90;;;;;;4191635;28;20684;-61
2023/12/23 02:56:07;;;;;;;2.30;1.43;;;3.00;99.90;;;;;;4192561;28;20771;-61
2023/12/23 02:58:09;;;;;;;1.67;0.50;;;2.90;99.90;;;;;;4191207;28;20717;-62
2023/12/23 03:00:12;;;;;;;0.87;0.20;;;2.90;99.90;;;;;;4191585;28;20294;-61
2023/12/23 03:02:13;;;;;;;1.20;0.50;;;2.90;99.90;;;;;;4173840;28;20286;-61
2023/12/23 03:04:15;;;;;;;2.43;0.17;;;3.00;99.90;;;;;;4191822;28;20277;-61
2023/12/23 03:06:17;;;;;;;0.40;0.13;;;3.00;99.90;;;;;;4192666;28;20319;-61
2023/12/23 03:08:18;;;;;;;0.30;0.17;;;3.00;99.90;;;;;;4192424;28;20664;-60
2023/12/23 03:10:19;;;;;;;0.30;0.30;;;3.00;99.90;;;;;;4193049;28;20330;-60
2023/12/23 03:12:20;;;;;;;1.57;0.20;;;3.10;99.90;;;;;;4192509;28;20668;-62
2023/12/23 03:14:21;;;;;;;1.93;0.20;;;3.10;99.90;;;;;;4191477;28;20285;-62
2023/12/23 03:16:22;;;;;;;0.40;0.10;;;3.10;99.90;;;;;;4191043;28;20374;-62
2023/12/23 03:18:23;;;;;;;0.10;0.10;;;3.20;99.90;;;;;;4191722;28;20273;-62
2023/12/23 03:20:26;;;;;;;0.63;0.00;;;3.20;99.90;;;;;;4192077;28;20289;-62
2023/12/23 03:22:27;;;;;;;0.60;0.20;;;3.20;99.90;;;;;;4191300;28;20281;-61
2023/12/23 03:24:28;;;;;;;1.70;0.10;;;3.20;99.90;;;;;;4191959;28;20266;-62
2023/12/23 03:26:29;;;;;;;0.13;0.00;;;3.20;99.90;;;;;;4191815;28;20261;-62
2023/12/23 03:28:31;;;;;;;0.73;0.10;;;3.20;99.90;;;;;;4192283;28;20257;-61
2023/12/23 03:30:32;;;;;;;0.97;0.03;;;3.10;99.90;;;;;;4192321;28;20269;-60
2023/12/23 03:32:33;;;;;;;0.07;0.00;;;3.10;99.90;;;;;;4190997;28;20311;-61
2023/12/23 03:34:34;;;;;;;0.30;0.10;;;3.10;99.90;;;;;;4192318;28;20273;-62
2023/12/23 03:36:35;;;;;;;0.10;0.00;;;3.10;99.90;;;;;;4192678;28;20265;-61
2023/12/23 03:38:36;;;;;;;0.87;0.20;;;3.10;99.90;;;;;;4191745;28;20322;-61
2023/12/23 03:40:38;;;;;;;2.93;0.07;;;3.10;99.90;;;;;;4192771;28;20293;-62
2023/12/23 03:42:40;;;;;;;1.63;0.00;;;3.00;99.90;;;;;;4191714;28;20273;-62
2023/12/23 03:44:41;;;;;;;0.30;0.00;;;3.00;99.90;;;;;;4192001;28;20277;-62
2023/12/23 03:46:42;;;;;;;0.90;0.20;;;3.00;99.90;;;;;;4190493;28;20792;-62
2023/12/23 03:48:44;;;;;;;2.17;0.20;;;2.90;99.90;;;;;;4191737;28;20274;-61
2023/12/23 03:50:45;;;;;;;0.27;0.10;;;2.90;99.90;;;;;;4173677;28;20274;-61
2023/12/23 03:52:46;;;;;;;0.30;0.10;;;2.90;99.90;;;;;;4191567;28;20273;-62
2023/12/23 03:54:47;;;;;;;2.40;0.63;;;2.90;99.90;;;;;;4191019;28;20621;-62
2023/12/23 03:56:48;;;;;;;0.33;0.20;;;2.90;99.90;;;;;;4192387;28;20265;-62
2023/12/23 03:58:49;;;;;;;0.30;0.20;;;2.90;99.90;;;;;;4190445;28;20403;-62
2023/12/23 04:00:51;;;;;;;0.73;0.10;;;2.90;99.90;;;;;;4192179;28;20300;-62
2023/12/23 04:02:55;;;;;;;1.63;0.20;;;2.90;99.90;;;;;;4191735;28;20311;-60
2023/12/23 04:04:56;;;;;;;2.17;0.20;;;2.90;99.90;;;;;;4191784;28;20643;-60
2023/12/23 04:06:57;;;;;;;0.30;0.10;;;2.90;99.90;;;;;;4195311;28;20728;-60
2023/12/23 04:08:58;;;;;;;0.50;0.10;;;2.90;99.90;;;;;;4195187;28;20322;-61
2023/12/23 04:10:59;;;;;;;0.27;0.10;;;2.90;99.90;;;;;;4195852;28;20257;-60
2023/12/23 04:13:01;;;;;;;0.40;0.10;;;2.90;99.90;;;;;;4194359;28;20307;-62
2023/12/23 04:15:05;;;;;;;0.87;0.10;;;2.80;99.90;;;;;;4195561;28;20721;-61
2023/12/23 04:17:07;;;;;;;0.77;0.20;;;2.90;99.90;;;;;;4194281;28;20319;-61
2023/12/23 04:19:08;;;;;;;0.27;0.00;;;2.90;99.90;;;;;;4195022;28;20269;-61
2023/12/23 04:21:10;;;;;;;0.40;0.00;;;2.90;99.90;;;;;;4195015;28;20261;-61
2023/12/23 04:23:12;;;;;;;2.40;0.77;;;2.90;99.90;;;;;;4194444;28;20331;-61
2023/12/23 04:25:13;;;;;;;1.17;0.23;;;2.90;99.90;;;;;;4193949;28;20629;-61
2023/12/23 04:27:15;;;;;;;0.40;0.23;;;2.90;99.90;;;;;;4194679;28;20338;-61
2023/12/23 04:29:16;;;;;;;0.67;0.17;;;3.00;99.90;;;;;;4194039;28;20616;-61
2023/12/23 04:31:17;;;;;;;0.10;0.00;;;3.00;99.90;;;;;;4194137;28;20269;-61
2023/12/23 04:33:19;;;;;;;0.10;0.00;;;3.00;99.90;;;;;;4194881;28;20275;-61
2023/12/23 04:35:21;;;;;;;1.90;0.50;;;3.00;99.90;;;;;;4193965;28;20277;-61
2023/12/23 04:37:22;;;;;;;0.20;0.10;;;3.00;99.90;;;;;;4194570;28;20261;-61
2023/12/23 04:39:23;;;;;;;1.13;0.13;;;3.00;99.90;;;;;;4194596;28;20269;-61
2023/12/23 04:41:24;;;;;;;0.30;0.13;;;3.10;99.90;;;;;;4194577;28;20331;-60
2023/12/23 04:43:26;;;;;;;0.47;0.10;;;3.10;99.90;;;;;;4193811;28;20319;-62
2023/12/23 04:45:27;;;;;;;0.00;0.00;;;3.10;99.90;;;;;;4194003;28;20342;-62
2023/12/23 04:47:28;;;;;;;0.87;0.10;;;3.10;99.90;;;;;;4193610;28;20335;-60
2023/12/23 04:49:29;;;;;;;0.20;0.10;;;3.10;99.90;;;;;;4192725;28;20281;-61
2023/12/23 04:51:30;;;;;;;0.10;0.00;;;3.10;99.90;;;;;;4193668;28;20371;-62
2023/12/23 04:53:32;;;;;;;0.50;0.20;;;3.20;99.90;;;;;;4193496;28;20269;-61
2023/12/23 04:55:33;;;;;;;0.30;0.10;;;3.10;99.90;;;;;;4193959;28;20266;-61
2023/12/23 04:57:34;;;;;;;0.50;0.10;;;3.20;99.90;;;;;;4194498;28;20318;-62
2023/12/23 04:59:35;;;;;;;0.20;0.10;;;3.10;99.90;;;;;;4193440;28;20258;-62
2023/12/23 05:01:36;;;;;;;0.10;0.00;;;3.10;99.90;;;;;;4193329;28;20863;-61
2023/12/23 05:03:38;;;;;;;2.33;0.20;;;3.20;99.90;;;;;;4192970;28;20289;-62
2023/12/23 05:05:41;;;;;;;1.13;0.40;;;3.20;99.90;;;;;;4194394;28;20262;-60
2023/12/23 05:07:42;;;;;;;0.10;0.07;;;3.20;99.90;;;;;;4194081;28;20902;-62
2023/12/23 05:09:44;;;;;;;0.70;0.20;;;3.20;99.90;;;;;;4194226;28;20676;-62
2023/12/23 05:11:45;;;;;;;0.30;0.10;;;3.20;99.90;;;;;;4194694;28;20265;-62
2023/12/23 05:13:46;;;;;;;0.20;0.00;;;3.20;99.90;;;;;;4193723;28;20348;-62
2023/12/23 05:15:47;;;;;;;0.30;0.00;;;3.20;99.90;;;;;;4194291;28;20330;-62
2023/12/23 05:17:49;;;;;;;0.10;0.00;;;3.20;99.90;;;;;;4192253;28;20278;-62
2023/12/23 05:19:50;;;;;;;0.33;0.00;;;3.20;99.90;;;;;;4193316;28;20870;-62
2023/12/23 05:21:52;;;;;;;0.00;0.00;;;3.20;99.90;;;;;;4192435;28;20708;-61
2023/12/23 05:23:53;;;;;;;0.10;0.00;;;3.10;99.90;;;;;;4193423;28;20273;-60
2023/12/23 05:25:55;;;;;;;0.30;0.00;;;3.10;99.90;;;;;;4193138;28;20841;-62
2023/12/23 05:27:56;;;;;;;0.43;0.03;;;3.00;99.90;;;;;;4193292;28;21290;-61
2023/12/23 05:29:57;;;;;;;0.10;0.00;;;2.90;99.90;;;;;;4193216;28;20668;-62
2023/12/23 05:31:58;;;;;;;0.30;0.00;;;2.80;99.90;;;;;;4194149;28;20672;-62
2023/12/23 05:33:59;;;;;;;0.63;0.10;;;2.70;99.90;;;;;;4193737;28;20257;-61
2023/12/23 05:36:01;;;;;;;0.30;0.10;;;2.50;99.90;;;;;;4193356;28;20257;-61
2023/12/23 05:38:02;;;;;;;0.63;0.10;;;2.50;99.90;;;;;;4175012;28;20262;-62
2023/12/23 05:40:05;;;;;;;0.57;0.30;;;2.40;99.90;;;;;;4193260;28;20301;-61
2023/12/23 05:42:06;;;;;;;0.33;0.10;;;2.30;99.90;;;;;;4193418;28;20698;-62
2023/12/23 05:44:08;;;;;;;0.10;0.00;;;2.20;99.90;;;;;;4192764;28;20327;-62
2023/12/23 05:46:09;;;;;;;0.03;0.00;;;2.10;99.90;;;;;;4192371;28;20277;-62
2023/12/23 05:48:11;;;;;;;0.17;0.10;;;2.00;99.90;;;;;;4175116;28;20278;-61
2023/12/23 05:50:12;;;;;;;0.53;0.10;;;2.00;99.90;;;;;;4192405;28;20315;-60
2023/12/23 05:52:13;;;;;;;0.20;0.10;;;1.90;99.90;;;;;;4192689;28;20277;-61
2023/12/23 05:54:15;;;;;;;0.70;0.10;;;1.80;99.90;;;;;;4193089;28;20265;-62
2023/12/23 05:56:16;;;;;;;0.67;0.00;;;1.70;99.90;;;;;;4192038;28;20285;-61
2023/12/23 05:58:17;;;;;;;0.50;0.17;;;1.60;99.90;;;;;;4193259;28;20308;-61
2023/12/23 06:00:20;;;;;;;0.50;0.17;;;1.40;99.90;;;;;;4192118;28;20290;-60
2023/12/23 06:02:21;;;;;;;1.20;0.10;;;1.40;99.90;;;;;;4192413;28;20281;-61
2023/12/23 06:04:22;;;;;;;0.20;0.20;;;1.30;99.90;;;;;;4192826;28;20343;-61
2023/12/23 06:06:23;;;;;;;0.40;0.10;;;1.20;99.90;;;;;;4193367;28;20339;-61
2023/12/23 06:08:24;;;;;;;0.27;0.10;;;1.20;99.90;;;;;;4193037;28;20261;-61
2023/12/23 06:10:26;;;;;;;0.50;0.20;;;1.10;99.90;;;;;;4193375;28;20656;-61
2023/12/23 06:12:27;;;;;;;1.33;0.60;;;1.10;99.90;;;;;;4192974;28;20295;-61
2023/12/23 06:14:28;;;;;;;1.77;0.40;;;1.20;99.90;;;;;;4192022;28;20281;-61
2023/12/23 06:16:29;;;;;;;0.63;0.33;;;1.20;99.90;;;;;;4193049;28;20265;-61
2023/12/23 06:18:31;;;;;;;0.73;0.30;;;1.20;99.90;;;;;;4192667;28;20327;-62
2023/12/23 06:20:32;;;;;;;1.30;0.47;;;1.20;99.90;;;;;;4191881;28;20692;-61
2023/12/23 06:22:33;;;;;;;1.90;0.30;;;1.20;99.90;;;;;;4191850;28;20266;-61
2023/12/23 06:24:34;;;;;;;4.00;0.43;;;1.30;99.90;;;;;;4192313;28;20266;-61
2023/12/23 06:26:35;;;;;;;0.50;0.23;;;1.30;99.90;;;;;;4191966;28;20269;-61
2023/12/23 06:28:36;;;;;;;0.50;0.30;;;1.30;99.90;;;;;;4192789;28;20703;-61
2023/12/23 06:30:38;;;;;;;3.13;0.43;;;1.30;99.90;;;;;;4192259;28;20265;-61
2023/12/23 06:32:39;;;;;;;1.50;0.80;;;1.40;99.90;;;;;;4193149;28;20376;-62
2023/12/23 06:34:40;;;;;;;1.07;0.60;;;1.40;99.90;;;;;;4191868;28;20684;-61
2023/12/23 06:36:41;;;;;;;0.60;0.27;;;1.40;99.90;;;;;;4193299;28;20354;-61
2023/12/23 06:38:42;;;;;;;0.70;0.50;;;1.30;99.90;;;;;;4191420;28;20338;-61
2023/12/23 06:40:44;;;;;;;0.87;0.40;;;1.40;99.90;;;;;;4191757;28;20347;-61
2023/12/23 06:42:45;;;;;;;4.60;1.17;;;1.30;99.90;;;;;;4191854;28;20273;-60
2023/12/23 06:44:46;;;;;;;1.63;0.67;;;1.30;99.90;;;;;;4191385;28;20745;-60
2023/12/23 06:46:47;;;;;;;0.87;0.50;;;1.20;99.90;;;;;;4174247;28;20323;-61
2023/12/23 06:48:51;;;;;;;1.03;0.50;;;1.20;99.90;;;;;;4192292;28;20358;-60
2023/12/23 06:50:52;;;;;;;2.27;1.10;;;1.30;99.90;;;;;;4173998;28;20297;-62
2023/12/23 06:52:53;;;;;;;0.97;0.70;;;1.20;99.90;;;;;;4191457;28;20274;-61
2023/12/23 06:54:55;;;;;;;3.13;1.17;;;1.20;99.90;;;;;;4191714;28;20277;-61
2023/12/23 06:56:56;;;;;;;1.00;0.73;;;1.30;99.90;;;;;;4190219;28;20266;-60
2023/12/23 06:58:59;;;;;;;1.63;1.00;;;1.30;99.90;;;;;;4191680;28;20269;-61
2023/12/23 07:01:00;;;;;;;3.47;0.87;;;1.40;99.90;;;;;;4191525;28;20803;-61
2023/12/23 07:03:01;;;;;;;0.90;0.70;;;1.40;99.90;;;;;;4192383;28;20277;-61
2023/12/23 07:05:03;;;;;;;1.97;0.93;;;1.40;99.90;;;;;;4192045;28;20665;-60
2023/12/23 07:07:04;;;;;;;0.83;0.50;;;1.40;99.90;;;;;;4192525;28;20801;-61
2023/12/23 07:09:05;;;;;;;2.97;0.83;;;1.40;99.90;;;;;;4192404;28;20261;-61
2023/12/23 07:11:09;;;;;;;0.80;0.47;;;1.40;99.90;;;;;;4191866;28;20281;-61
2023/12/23 07:13:10;;;;;;;1.07;0.30;;;1.50;99.90;;;;;;4192491;28;20328;-61
2023/12/23 07:15:12;;;;;;;0.43;0.20;;;1.50;99.90;;;;;;4191813;28;20331;-61
2023/12/23 07:17:13;;;;;;;0.30;0.30;;;1.50;99.90;;;;;;4192306;28;20342;-61
2023/12/23 07:19:14;;;;;;;0.87;0.50;;;1.50;99.90;;;;;;4191287;28;20319;-60
2023/12/23 07:21:15;;;;;;;2.57;0.30;;;1.50;99.90;;;;;;4191289;28;20343;-61
2023/12/23 07:23:16;;;;;;;0.93;0.30;;;1.50;99.90;;;;;;4191190;28;20699;-61
2023/12/23 07:25:18;;;;;;;5.10;0.60;;;1.50;99.90;;;;;;4192039;28;20288;-61
2023/12/23 07:27:19;;;;;;;0.87;0.60;;;1.50;99.90;;;;;;4190255;28;20791;-60
2023/12/23 07:29:20;;;;;;;1.77;0.70;;;1.50;99.90;;;;;;4190613;28;20633;-61
2023/12/23 07:31:21;;;;;;;0.50;0.40;;;1.60;99.90;;;;;;4191321;28;20322;-62
2023/12/23 07:33:23;;;;;;;3.27;0.80;;;1.60;99.90;;;;;;4191040;28;20338;-62
2023/12/23 07:35:24;;;;;;;0.93;0.60;;;1.60;99.90;;;;;;4191014;28;20315;-61
2023/12/23 07:37:25;;;;;;;0.90;0.60;;;1.60;99.90;;;;;;4191219;28;20273;-61
2023/12/23 07:39:26;;;;;;;1.43;0.60;;;1.60;99.90;;;;;;4190976;28;20311;-61
2023/12/23 07:41:27;;;;;;;1.63;0.60;;;1.60;99.90;;;;;;4177584;28;20286;-61
2023/12/23 07:43:29;;;;;;;1.27;0.60;;;1.70;99.90;;;;;;4195183;28;20265;-61
2023/12/23 07:45:30;;;;;;;0.53;0.33;;;1.70;99.90;;;;;;4176237;28;20286;-61
2023/12/23 07:47:31;;;;;;;1.93;0.90;;;1.60;99.90;;;;;;4195689;28;20269;-62
2023/12/23 07:49:32;;;;;;;0.83;0.43;;;1.60;99.90;;;;;;4195571;28;20661;-61
2023/12/23 07:51:33;;;;;;;2.20;0.47;;;1.50;99.90;;;;;;4194788;28;20307;-60
2023/12/23 07:53:35;;;;;;;0.43;0.30;;;1.50;99.90;;;;;;4194664;28;20361;-61
2023/12/23 07:55:36;;;;;;;0.87;0.43;;;1.50;99.90;;;;;;4195383;28;20269;-60
2023/12/23 07:57:37;;;;;;;0.97;0.60;;;1.50;99.90;;;;;;4194382;28;20668;-61
2023/12/23 07:59:39;;;;;;;1.73;0.60;;;1.50;99.90;;;;;;4195341;28;20818;-61
2023/12/23 08:01:44;;;;;;;0.93;0.50;;;1.50;99.90;;;;;;4182423;28;20862;-62
2023/12/23 08:03:45;;;;;;;6.23;3.40;;;1.40;99.90;;;;;;4178323;28;21086;-61
2023/12/23 08:05:46;;;;;;;6.00;4.10;;;1.40;99.90;;;;;;4177566;28;20262;-61
2023/12/23 08:07:47;;;;;;;4.97;2.73;;;1.40;99.90;;;;;;4179019;28;20336;-60
2023/12/23 08:09:49;;;;;;;6.13;3.57;;;1.30;99.90;;;;;;4178159;28;20328;-61
2023/12/23 08:11:50;;;;;;;9.43;6.03;;;1.30;99.90;;;;;;4179047;28;20312;-61
2023/12/23 08:13:51;;;;;;;8.47;4.90;;;1.30;99.90;;;;;;4177835;28;20666;-61
2023/12/23 08:15:52;;;;;;;8.47;5.47;;;1.30;99.90;;;;;;4178146;28;20255;-61
2023/12/23 08:17:53;;;;;;;21.43;10.60;;;1.30;99.90;;;;;;4182406;28;20269;-61
2023/12/23 08:19:54;;;;;;;19.77;11.50;;;1.30;99.90;;;;;;4194936;28;20331;-61
2023/12/23 08:21:55;;;;;;;8.07;4.90;;;1.30;99.90;;;;;;4194611;28;20297;-61
2023/12/23 08:23:57;;;;;;;9.70;5.37;;;1.40;99.90;;;;;;4194329;28;20751;-61
2023/12/23 08:25:58;;;;;;;5.17;3.33;;;1.40;99.90;;;;;;4194090;28;20281;-62
2023/12/23 08:27:59;;;;;;;5.93;3.93;;;1.40;99.90;;;;;;4193701;28;20347;-62
2023/12/23 08:30:00;;;;;;;5.27;3.27;;;1.30;99.90;;;;;;4194267;28;20262;-61
2023/12/23 08:32:02;;;;;;;4.43;3.43;;;1.30;99.90;;;;;;4194024;28;20257;-62
2023/12/23 08:34:04;;;;;;;9.00;5.00;;;1.30;99.90;;;;;;4194945;28;20283;-62
2023/12/23 08:36:05;;;;;;;10.40;4.10;;;1.30;99.90;;;;;;4194142;28;20398;-60
2023/12/23 08:38:06;;;;;;;6.93;4.17;;;1.40;99.90;;;;;;4194940;28;20285;-60
2023/12/23 08:40:08;;;;;;;4.00;2.70;;;1.50;99.90;;;;;;4194477;28;20341;-60
2023/12/23 08:42:09;;;;;;;2.23;2.10;;;1.50;99.90;;;;;;4194329;28;20285;-59
2023/12/23 08:44:10;;;;;;;2.50;2.13;;;1.50;99.90;;;;;;4194532;28;20343;-61
2023/12/23 08:46:12;;;;;;;11.20;4.20;;;1.50;99.90;;;;;;4193661;28;20275;-60
2023/12/23 08:48:13;;;;;;;7.73;4.57;;;1.40;99.90;;;;;;4193711;28;20273;-60
2023/12/23 08:50:14;;;;;;;3.97;2.33;;;1.40;99.90;;;;;;4193618;28;20319;-59
2023/12/23 08:52:15;;;;;;;2.87;2.10;;;1.40;99.90;;;;;;4193919;28;20632;-59
2023/12/23 08:54:16;;;;;;;8.60;4.80;;;1.40;99.90;;;;;;4193108;28;20273;-58
2023/12/23 08:56:17;;;;;;;3.70;2.43;;;1.40;99.90;;;;;;4194459;28;20644;-60
2023/12/23 08:58:19;;;;;;;2.53;1.93;;;1.30;99.90;;;;;;4194529;28;20269;-60
2023/12/23 09:00:20;;;;;;;2.10;1.53;;;1.30;99.90;;;;;;4193804;28;20257;-62
2023/12/23 09:02:21;;;;;;;3.33;2.07;;;1.20;99.90;;;;;;4175413;28;20336;-62
2023/12/23 09:04:22;;;;;;;5.70;1.93;;;1.20;99.90;;;;;;4194464;28;20261;-60
2023/12/23 09:06:23;;;;;;;5.53;2.03;;;1.10;99.90;;;;;;4192754;28;20368;-60
2023/12/23 09:08:25;;;;;;;4.90;2.70;;;1.10;99.90;;;;;;4193971;28;20286;-62
2023/12/23 09:10:26;;;;;;;2.80;1.73;;;1.10;99.90;;;;;;4194351;28;20326;-62
2023/12/23 09:12:27;;;;;;;3.10;2.17;;;1.00;99.90;;;;;;4193562;28;20270;-63
2023/12/23 09:14:29;;;;;;;3.03;2.27;;;1.00;99.90;;;;;;4193238;28;20307;-62
2023/12/23 09:16:30;;;;;;;5.40;2.50;;;1.00;99.90;;;;;;4193483;28;20340;-61
2023/12/23 09:18:32;;;;;;;3.40;2.10;;;1.00;99.90;;;;;;4193640;28;20281;-62
2023/12/23 09:20:33;;;;;;;2.53;2.30;;;1.00;99.90;;;;;;4193465;28;20757;-61
2023/12/23 09:22:34;;;;;;;5.70;2.77;;;1.00;99.90;;;;;;4194069;28;20336;-62
2023/12/23 09:24:36;;;;;;;3.73;2.90;;;1.00;99.90;;;;;;4193773;28;20265;-62
2023/12/23 09:26:37;;;;;;;6.03;4.87;;;1.00;99.90;;;;;;4193677;28;20307;-63
2023/12/23 09:28:38;;;;;;;9.90;5.70;;;1.00;99.90;;;;;;4193582;28;20350;-62
2023/12/23 09:30:39;;;;;;;7.40;3.83;;;1.00;99.90;;;;;;4193971;28;20290;-63
2023/12/23 09:32:41;;;;;;;6.03;4.10;;;1.00;99.90;;;;;;4193684;28;20335;-61
2023/12/23 09:34:42;;;;;;;5.53;3.87;;;1.00;99.90;;;;;;4193950;28;20814;-61
2023/12/23 09:36:43;;;;;;;8.00;4.33;;;1.00;99.90;;;;;;4192965;28;20273;-61
2023/12/23 09:38:44;;;;;;;5.37;3.90;;;1.00;99.90;;;;;;4193719;28;20289;-61
2023/12/23 09:40:45;;;;;;;5.20;3.90;;;1.00;99.90;;;;;;4193588;28;20835;-61
2023/12/23 09:42:47;;;;;;;7.60;5.80;;;0.90;99.90;;;;;;4193725;28;20311;-62
2023/12/23 09:44:48;;;;;;;5.77;4.27;;;0.90;99.90;;;;;;4193404;28;20725;-62
2023/12/23 09:46:50;;;;;;;5.27;4.27;;;0.90;99.90;;;;;;4193567;28;20379;-60
2023/12/23 09:48:51;;;;;;;6.13;3.83;;;0.90;99.90;;;;;;4192451;28;20697;-62
2023/12/23 09:50:53;;;;;;;6.87;3.83;;;0.90;99.90;;;;;;4192883;28;20335;-61
2023/12/23 09:52:58;;;;;;;3.73;2.60;;;0.90;99.90;;;;;;4193411;28;20386;-60
2023/12/23 09:55:02;;;;;;;4.57;3.17;;;0.90;99.90;;;;;;4192847;28;20326;-63
2023/12/23 09:57:03;;;;;;;3.77;2.80;;;0.90;99.90;;;;;;4175051;28;20272;-61
2023/12/23 09:59:05;;;;;;;3.03;2.40;;;0.90;99.90;;;;;;4193418;28;20795;-61
2023/12/23 10:01:08;;;;;;;3.03;2.67;;;0.90;99.90;;;;;;4193261;28;20331;-61
2023/12/23 10:03:09;;;;;;;3.10;2.50;;;1.00;99.90;;;;;;4191295;28;20367;-62
2023/12/23 10:05:12;;;;;;;6.57;3.80;;;1.10;99.90;;;;;;4193393;28;20270;-62
2023/12/23 10:07:15;;;;;;;12.20;4.83;;;1.10;99.90;;;;;;4192825;28;20262;-61
2023/12/23 10:09:16;;;;;;;9.70;4.30;;;1.20;99.90;;;;;;4191938;28;20327;-59
2023/12/23 10:11:19;;;;;;;5.97;3.03;;;1.20;99.90;;;;;;4192925;28;20426;-61
2023/12/23 10:13:21;;;;;;;7.33;3.30;;;1.20;99.90;;;;;;4193269;28;20720;-60
2023/12/23 10:15:22;;;;;;;4.57;2.10;;;1.30;99.90;;;;;;4192932;28;20299;-60
2023/12/23 10:17:23;;;;;;;3.97;2.27;;;1.30;99.90;;;;;;4193286;28;20257;-60
2023/12/23 10:19:25;;;;;;;3.47;2.07;;;1.30;99.90;;;;;;4192048;28;21070;-58
2023/12/23 10:21:26;;;;;;;10.20;4.50;;;1.40;99.90;;;;;;4192146;28;20297;-59
2023/12/23 10:23:29;;;;;;;4.40;2.20;;;1.40;99.90;;;;;;4192521;28;20341;-60
2023/12/23 10:25:30;;;;;;;7.33;3.37;;;1.50;99.90;;;;;;4192214;28;20672;-60
2023/12/23 10:27:33;;;;;;;2.93;1.93;;;1.60;99.90;;;;;;4192404;28;20355;-60
2023/12/23 10:29:35;;;;;;;3.03;1.80;;;1.60;99.90;;;;;;4191902;28;20303;-60
2023/12/23 10:31:37;;;;;;;3.47;1.30;;;1.70;99.90;;;;;;4191519;28;20346;-60
2023/12/23 10:33:44;;;;;;;2.60;1.93;;;1.70;99.90;;;;;;4191334;28;20347;-58
2023/12/23 10:35:47;;;;;;;2.57;1.30;;;1.80;99.90;;;;;;4192822;28;20315;-60
2023/12/23 10:37:54;;;;;;;2.60;0.50;;;1.90;99.90;;;;;;4191727;28;20281;-60
2023/12/23 10:40:13;;;;;;;3.57;0.17;;;1.80;99.90;;;;;;4192311;28;20322;-61
2023/12/23 10:42:22;;;;;;;1.80;0.13;;;1.00;99.90;;;;;;4191557;28;20293;-59